Atlanta, Louisiana
Current Conditions -  °F | °C
As of 9:55 AM on Sunday 23 Nov 2014 (Local Time) from KIER Reporting Station
Broken Clouds Broken Clouds  
Wind Chill: 63°   Ceiling: 7000
Heat Index: 63°   Visibility: 10mi
Dew Point: 62°   Wind: 8mph
Humidity: 96%   Direction: 270°W
Pressure: 29.58"   Gusts: NA
Location:  31.81°N, 92.74°W
Report Text: KIER 231555Z AUTO 27007KT 10SM SCT006 SCT011 BKN070 17/17 A2958 RMK AO2 P0001 T01710165
Loading
Personal Weather Stations






























Interactive Weather Map New forecast layout! Learn more

10-Day Weather Forecast

Advertisements
Track Severe Weather on mobile